Du Quoin, Illinois
Current Conditions -  °F | °C
As of 11:15 AM on Sunday 23 Nov 2014 (Local Time) from KMDH Reporting Station
Light Rain Light Rain  
Wind Chill: 55°   Ceiling: 1300
Heat Index: 55°   Visibility: 10mi
Dew Point: 51°   Wind: 12mph
Humidity: 86%   Direction: 140°SE
Pressure: 29.61"   Gusts: NA
Location:  38.01°N, 89.24°W
Report Text: KMDH 231715Z AUTO 14010KT 10SM -RA OVC013 13/11 A2961 RMK AO2 PRESFR P0000 T01280106
Loading
Personal Weather Stations






























Interactive Weather Map New forecast layout! Learn more

10-Day Weather Forecast

Advertisements
Track Severe Weather on mobile